createdAt,value
2022-12-31T00:01:46.552Z,94.90
2022-12-31T00:05:33.944Z,94.90
2022-12-31T00:09:16.028Z,94.90
2022-12-31T00:12:58.213Z,94.90
2022-12-31T00:16:41.964Z,94.90
2022-12-31T00:20:24.009Z,95.00
2022-12-31T00:24:07.638Z,95.00
2022-12-31T00:27:49.683Z,95.10
2022-12-31T00:31:39.515Z,95.10
2022-12-31T00:35:21.517Z,95.20
2022-12-31T00:39:05.616Z,95.20
2022-12-31T00:42:48.896Z,95.30
2022-12-31T00:46:32.260Z,95.30
2022-12-31T00:50:15.249Z,95.40
2022-12-31T00:53:58.347Z,95.40
2022-12-31T00:57:40.380Z,95.50
2022-12-31T01:01:30.186Z,95.50
2022-12-31T01:05:14.620Z,95.60
2022-12-31T01:08:57.213Z,95.60
2022-12-31T01:12:41.267Z,95.60
2022-12-31T01:16:40.732Z,95.60
2022-12-31T01:20:23.034Z,95.50
2022-12-31T01:24:13.488Z,95.60
2022-12-31T01:27:55.642Z,95.60
2022-12-31T01:31:40.399Z,95.60
2022-12-31T01:35:22.692Z,95.60
2022-12-31T01:39:07.013Z,95.60
2022-12-31T01:42:58.904Z,95.70
2022-12-31T01:47:01.415Z,95.70
2022-12-31T01:50:48.453Z,95.50
2022-12-31T01:54:34.426Z,95.70
2022-12-31T01:58:34.750Z,95.80
2022-12-31T02:02:17.408Z,95.80
2022-12-31T02:06:13.498Z,95.80
2022-12-31T02:09:55.945Z,95.70
2022-12-31T02:13:38.124Z,95.80
2022-12-31T02:17:37.386Z,95.90
2022-12-31T02:21:42.934Z,95.90
2022-12-31T02:26:09.985Z,95.90
2022-12-31T02:30:04.417Z,96.00
2022-12-31T02:34:02.239Z,96.00
2022-12-31T02:37:48.312Z,96.00
2022-12-31T02:41:48.743Z,96.10
2022-12-31T02:45:40.228Z,96.10
2022-12-31T02:49:42.434Z,96.10
2022-12-31T02:54:00.532Z,96.10
2022-12-31T02:57:51.643Z,96.20
2022-12-31T03:02:00.534Z,96.40
2022-12-31T03:05:47.888Z,96.40
2022-12-31T03:09:30.587Z,96.40
2022-12-31T03:13:13.975Z,96.40
2022-12-31T03:16:58.238Z,96.50
2022-12-31T03:21:03.400Z,96.40
2022-12-31T03:25:04.100Z,96.50
2022-12-31T03:28:48.372Z,96.40
2022-12-31T03:32:30.371Z,96.50
2022-12-31T03:36:15.214Z,96.40
2022-12-31T03:39:57.477Z,96.50
2022-12-31T03:43:39.739Z,96.50
2022-12-31T03:47:22.789Z,96.50
2022-12-31T03:51:05.109Z,96.50
2022-12-31T03:54:48.508Z,96.60
2022-12-31T03:58:30.499Z,96.70
2022-12-31T04:02:13.189Z,96.60
2022-12-31T04:05:56.300Z,96.60
2022-12-31T04:09:38.791Z,96.60
2022-12-31T04:13:20.812Z,96.50
2022-12-31T04:17:02.934Z,96.50
2022-12-31T04:20:44.906Z,96.50
2022-12-31T04:24:33.152Z,96.40
2022-12-31T04:28:16.331Z,96.40
2022-12-31T04:31:58.551Z,96.30
2022-12-31T04:35:40.599Z,96.40
2022-12-31T04:39:23.166Z,96.30
2022-12-31T04:43:05.100Z,96.30
2022-12-31T04:46:47.282Z,96.30
2022-12-31T04:50:29.286Z,96.20
2022-12-31T04:54:11.419Z,96.20
2022-12-31T04:57:53.403Z,96.10
2022-12-31T05:01:36.947Z,96.10
2022-12-31T05:05:19.003Z,96.10
2022-12-31T05:09:01.687Z,96.00
2022-12-31T05:12:43.924Z,96.00
2022-12-31T05:16:26.222Z,96.00
2022-12-31T05:20:10.217Z,96.00
2022-12-31T05:23:53.044Z,95.90
2022-12-31T05:27:35.844Z,96.00
2022-12-31T05:31:17.893Z,96.00
2022-12-31T05:35:01.301Z,96.10
2022-12-31T05:38:43.313Z,96.10
2022-12-31T05:42:27.460Z,96.10
2022-12-31T05:46:09.671Z,96.20
2022-12-31T05:49:52.790Z,96.20
2022-12-31T05:53:34.829Z,96.20
2022-12-31T05:57:16.939Z,96.20
2022-12-31T06:00:59.437Z,96.10
2022-12-31T06:04:41.706Z,96.20
2022-12-31T06:08:24.166Z,96.10
2022-12-31T06:12:14.042Z,96.20
2022-12-31T06:15:56.083Z,96.10
2022-12-31T06:19:38.289Z,96.10
2022-12-31T06:23:24.351Z,96.10
2022-12-31T06:27:06.504Z,96.00
2022-12-31T06:30:49.169Z,96.00
2022-12-31T06:34:31.246Z,96.00
2022-12-31T06:38:13.368Z,96.00
2022-12-31T06:41:55.607Z,96.10
2022-12-31T06:45:39.902Z,96.10
2022-12-31T06:49:23.276Z,96.10
2022-12-31T06:53:05.649Z,96.10
2022-12-31T06:56:49.187Z,96.10
2022-12-31T07:01:14.455Z,96.20
2022-12-31T07:05:12.421Z,96.30
2022-12-31T07:09:23.007Z,96.20
2022-12-31T07:13:36.133Z,96.20
2022-12-31T07:17:30.384Z,96.40
2022-12-31T07:21:18.832Z,96.20
2022-12-31T07:25:01.575Z,96.30
2022-12-31T07:29:12.704Z,96.30
2022-12-31T07:33:13.312Z,96.30
2022-12-31T07:37:32.331Z,96.30
2022-12-31T07:41:30.399Z,96.40
2022-12-31T07:45:26.686Z,96.30
2022-12-31T07:49:13.661Z,96.40
2022-12-31T07:52:56.316Z,96.40
2022-12-31T07:56:38.366Z,96.40
2022-12-31T08:00:20.964Z,96.40
2022-12-31T08:04:19.418Z,96.40
2022-12-31T08:08:07.663Z,96.30
2022-12-31T08:11:57.971Z,96.30
2022-12-31T08:15:42.423Z,96.30
2022-12-31T08:19:31.237Z,96.30
2022-12-31T08:23:34.236Z,96.30
2022-12-31T08:27:33.562Z,96.30
2022-12-31T08:31:23.573Z,96.30
2022-12-31T08:35:14.863Z,96.30
2022-12-31T08:39:02.832Z,96.30
2022-12-31T08:43:13.126Z,96.30
2022-12-31T08:47:35.445Z,96.40
2022-12-31T08:51:23.462Z,96.30
2022-12-31T08:55:06.470Z,96.30
2022-12-31T08:59:10.321Z,96.30
2022-12-31T09:03:03.027Z,96.30
2022-12-31T09:06:55.832Z,96.30
2022-12-31T09:10:54.459Z,96.30
2022-12-31T09:14:55.343Z,96.30
2022-12-31T09:18:41.371Z,96.40
2022-12-31T09:22:23.674Z,96.40
2022-12-31T09:26:11.841Z,96.40
2022-12-31T09:30:07.452Z,96.40
2022-12-31T09:33:52.081Z,96.50
2022-12-31T09:37:51.710Z,96.50
2022-12-31T09:41:36.605Z,96.50
2022-12-31T09:45:56.254Z,96.50
2022-12-31T09:50:28.545Z,96.40
2022-12-31T09:54:38.011Z,96.40
2022-12-31T09:58:44.967Z,96.40
2022-12-31T10:02:39.405Z,96.40
2022-12-31T10:06:29.742Z,96.30
2022-12-31T10:10:34.709Z,96.40
2022-12-31T10:14:47.323Z,96.40
2022-12-31T10:18:30.447Z,96.50
2022-12-31T10:22:25.535Z,96.50
2022-12-31T10:26:37.802Z,96.50
2022-12-31T10:30:24.488Z,96.50
2022-12-31T10:34:40.765Z,96.50
2022-12-31T10:38:38.411Z,96.60
2022-12-31T10:43:11.141Z,96.60
2022-12-31T10:47:29.919Z,96.70
2022-12-31T10:51:51.676Z,96.70
2022-12-31T10:55:57.649Z,96.70
2022-12-31T10:59:49.581Z,96.70
2022-12-31T11:04:09.559Z,96.60
2022-12-31T11:08:12.893Z,96.60
2022-12-31T11:12:29.166Z,96.60
2022-12-31T11:16:18.583Z,96.60
2022-12-31T11:20:34.332Z,96.50
2022-12-31T11:24:18.664Z,96.50
2022-12-31T11:28:29.401Z,96.50
2022-12-31T11:32:25.363Z,96.50
2022-12-31T11:36:18.641Z,96.50
2022-12-31T11:40:31.814Z,96.40
2022-12-31T11:44:49.598Z,96.30
2022-12-31T11:48:40.785Z,96.30
2022-12-31T11:52:44.675Z,96.30
2022-12-31T11:56:35.763Z,96.30
2022-12-31T12:00:22.445Z,96.30
2022-12-31T12:04:05.473Z,96.40
2022-12-31T12:07:52.474Z,96.30
2022-12-31T12:11:41.513Z,96.40
2022-12-31T12:15:48.386Z,96.40
2022-12-31T12:24:12.435Z,96.40
2022-12-31T12:28:44.315Z,96.50
2022-12-31T12:32:43.159Z,96.40
2022-12-31T12:36:30.980Z,96.40
2022-12-31T12:40:33.481Z,96.40
2022-12-31T12:59:09.935Z,96.50
2022-12-31T13:04:31.842Z,96.50
2022-12-31T13:08:38.830Z,96.50
2022-12-31T13:22:38.092Z,96.50
2022-12-31T13:26:30.591Z,96.50
2022-12-31T13:30:38.607Z,96.60
2022-12-31T13:34:26.502Z,96.50
2022-12-31T13:38:29.807Z,96.60
2022-12-31T13:43:03.312Z,96.60
2022-12-31T13:46:56.208Z,96.70
2022-12-31T13:59:43.384Z,96.70
2022-12-31T14:04:10.558Z,96.70
2022-12-31T14:08:02.786Z,96.80
2022-12-31T14:12:39.266Z,96.80
2022-12-31T14:16:51.102Z,96.80
2022-12-31T14:21:31.027Z,96.80
2022-12-31T14:30:46.864Z,96.80
2022-12-31T14:35:42.467Z,96.80
2022-12-31T14:53:16.831Z,96.70
2022-12-31T15:06:48.369Z,96.70
2022-12-31T15:11:27.212Z,96.70
2022-12-31T15:34:42.899Z,96.70
2022-12-31T15:38:38.079Z,96.70
2022-12-31T15:43:12.630Z,96.70
2022-12-31T15:47:29.268Z,96.70
2022-12-31T15:51:26.069Z,96.60
2022-12-31T15:55:34.457Z,96.60
2022-12-31T15:59:21.204Z,96.60
2022-12-31T16:03:03.915Z,96.60
2022-12-31T16:06:51.251Z,96.60
2022-12-31T16:10:36.485Z,96.60
2022-12-31T16:14:35.191Z,96.60
2022-12-31T16:18:22.785Z,96.60
2022-12-31T16:22:27.559Z,96.60
2022-12-31T16:26:12.364Z,96.70
2022-12-31T16:30:02.724Z,96.60
2022-12-31T16:33:47.959Z,96.60
2022-12-31T16:37:34.804Z,96.60
2022-12-31T16:41:20.102Z,96.60
2022-12-31T16:45:30.274Z,96.70
2022-12-31T16:49:23.023Z,96.50
2022-12-31T16:53:13.805Z,96.60
2022-12-31T17:01:02.148Z,96.60
2022-12-31T17:04:55.578Z,96.60
2022-12-31T17:08:59.494Z,96.70
2022-12-31T17:13:25.451Z,96.70
2022-12-31T17:17:42.644Z,96.70
2022-12-31T17:21:29.071Z,96.60
2022-12-31T17:25:34.094Z,96.50
2022-12-31T17:29:26.997Z,96.40
2022-12-31T17:37:28.261Z,96.40
2022-12-31T17:41:30.545Z,96.40
2022-12-31T17:45:22.880Z,96.30
2022-12-31T17:49:05.078Z,96.30
2022-12-31T17:56:49.398Z,96.50
2022-12-31T18:00:33.979Z,96.40
2022-12-31T18:04:18.557Z,96.40
2022-12-31T18:08:03.005Z,96.40
2022-12-31T18:11:52.541Z,96.50
2022-12-31T18:15:49.913Z,96.50
2022-12-31T18:27:38.920Z,96.50
2022-12-31T18:31:32.053Z,96.60
2022-12-31T18:35:49.056Z,96.60
2022-12-31T18:39:32.531Z,96.60
2022-12-31T18:43:20.153Z,96.60
2022-12-31T18:47:16.167Z,96.60
2022-12-31T18:50:59.505Z,96.60
2022-12-31T18:54:42.484Z,96.60
2022-12-31T18:58:26.121Z,96.60
2022-12-31T19:02:22.564Z,96.60
2022-12-31T19:06:08.141Z,96.60
2022-12-31T19:09:56.427Z,96.60
2022-12-31T19:13:41.992Z,96.60
2022-12-31T19:17:33.159Z,96.60
2022-12-31T19:21:21.950Z,96.60
2022-12-31T19:25:06.013Z,96.50
2022-12-31T19:28:49.284Z,96.40
2022-12-31T19:32:31.773Z,96.40
2022-12-31T19:36:19.029Z,96.30
2022-12-31T19:40:02.261Z,96.40
2022-12-31T19:43:44.411Z,96.40
2022-12-31T19:47:28.919Z,96.30
2022-12-31T19:51:17.995Z,96.20
2022-12-31T19:55:00.373Z,96.20
2022-12-31T19:58:43.798Z,96.10
2022-12-31T20:02:25.872Z,96.10
2022-12-31T20:06:11.180Z,96.00
2022-12-31T20:09:53.187Z,96.00
2022-12-31T20:13:37.931Z,96.00
2022-12-31T20:17:21.499Z,96.00
2022-12-31T20:21:06.250Z,95.90
2022-12-31T20:24:48.413Z,95.90
2022-12-31T20:28:30.711Z,96.00
2022-12-31T20:32:13.085Z,95.90
2022-12-31T20:35:57.973Z,95.90
2022-12-31T20:39:40.032Z,95.90
2022-12-31T20:43:22.204Z,95.90
2022-12-31T20:47:04.276Z,95.90
2022-12-31T20:50:55.262Z,96.00
2022-12-31T20:54:38.625Z,95.90
2022-12-31T20:58:21.326Z,96.00
2022-12-31T21:06:07.103Z,96.10
2022-12-31T21:09:49.330Z,96.10
2022-12-31T21:13:33.363Z,96.10
2022-12-31T21:17:16.563Z,96.10
2022-12-31T21:21:00.893Z,96.10
2022-12-31T21:24:44.707Z,96.10
2022-12-31T21:28:26.686Z,96.10
2022-12-31T21:32:09.080Z,96.10
2022-12-31T21:35:53.851Z,96.10
2022-12-31T21:39:36.293Z,96.10
2022-12-31T21:43:19.042Z,96.10
2022-12-31T21:47:39.770Z,96.10
2022-12-31T21:51:23.655Z,96.10
2022-12-31T21:55:25.238Z,96.10
2022-12-31T21:59:28.367Z,96.20
2022-12-31T22:03:34.997Z,96.10
2022-12-31T22:07:25.861Z,96.20
2022-12-31T22:11:08.878Z,96.20
2022-12-31T22:15:15.120Z,96.20
2022-12-31T22:18:57.110Z,96.20
2022-12-31T22:22:40.319Z,96.20
2022-12-31T22:26:25.198Z,96.10
2022-12-31T22:30:11.033Z,96.10
2022-12-31T22:33:54.298Z,96.10
2022-12-31T22:37:56.251Z,96.00
2022-12-31T22:41:40.757Z,96.00
2022-12-31T22:45:23.685Z,95.90
2022-12-31T22:49:05.982Z,95.90
2022-12-31T22:52:48.122Z,95.90
2022-12-31T22:56:32.504Z,95.90
2022-12-31T23:00:14.927Z,96.00
2022-12-31T23:03:57.348Z,96.10
2022-12-31T23:07:39.642Z,96.10
2022-12-31T23:11:21.700Z,96.00
2022-12-31T23:15:24.309Z,96.10
2022-12-31T23:19:26.092Z,96.10
2022-12-31T23:23:16.473Z,96.10
2022-12-31T23:26:59.025Z,96.10
2022-12-31T23:30:43.952Z,96.10
2022-12-31T23:34:26.005Z,96.10
2022-12-31T23:38:08.454Z,96.00
2022-12-31T23:41:50.700Z,95.90
2022-12-31T23:45:33.916Z,95.90
2022-12-31T23:49:16.253Z,95.90
2022-12-31T23:52:58.431Z,96.00
2022-12-31T23:56:40.792Z,96.00
